Time;durP1;ratioP1;P1;durP2;ratioP2;P2;SDS_P1;SDS_P2;PMS_P1;PMS_P2;Temp;Humidity;BMP_temperature;BMP_pressure;BME280_temperature;BME280_humidity;BME280_pressure;Samples;Min_cycle;Max_cycle;Signal;HPM_P1;HPM_P2
2022/12/14 00:01:20;;;;;;;28.25;12.23;;;-2.50;94.30;;;;;;5012087;28;20053;-76
2022/12/14 00:03:46;;;;;;;39.30;14.05;;;-2.40;94.70;;;;;;5010987;28;20037;-75
2022/12/14 00:06:17;;;;;;;29.35;12.43;;;-2.40;94.70;;;;;;5010726;28;20033;-75
2022/12/14 00:08:44;;;;;;;28.63;11.77;;;-2.30;94.80;;;;;;5011569;28;20034;-75
2022/12/14 00:11:13;;;;;;;31.45;12.50;;;-2.20;94.80;;;;;;5010798;28;20468;-75
2022/12/14 00:13:39;;;;;;;30.00;11.52;;;-2.10;94.80;;;;;;5011996;28;20183;-75
2022/12/14 00:16:15;;;;;;;35.92;13.90;;;-2.10;94.80;;;;;;5011728;28;20095;-75
2022/12/14 00:18:42;;;;;;;31.77;13.30;;;-2.20;94.50;;;;;;5011516;28;20030;-75
2022/12/14 00:21:11;;;;;;;32.55;13.93;;;-2.30;94.40;;;;;;5011702;28;20030;-74
2022/12/14 00:23:39;;;;;;;32.47;12.90;;;-2.30;94.30;;;;;;5010585;28;20164;-75
2022/12/14 00:26:11;;;;;;;33.13;13.57;;;-2.30;94.30;;;;;;5011278;28;20428;-74
2022/12/14 00:28:38;;;;;;;31.50;13.88;;;-2.30;94.30;;;;;;5011898;28;20033;-75
2022/12/14 00:31:04;;;;;;;34.55;13.43;;;-2.30;94.60;;;;;;5011352;28;20025;-74
2022/12/14 00:33:29;;;;;;;35.22;13.40;;;-2.40;94.30;;;;;;5011435;28;20048;-75
2022/12/14 00:35:55;;;;;;;34.80;13.75;;;-2.50;94.20;;;;;;5011388;28;20472;-74
2022/12/14 00:38:20;;;;;;;37.70;13.23;;;-2.50;94.30;;;;;;5011271;28;20046;-74
2022/12/14 00:40:46;;;;;;;33.75;13.25;;;-2.40;94.60;;;;;;5011633;28;20436;-74
2022/12/14 00:43:11;;;;;;;35.63;12.77;;;-2.30;94.70;;;;;;5011307;28;20022;-75
2022/12/14 00:45:37;;;;;;;32.45;12.23;;;-2.40;94.50;;;;;;5011378;28;20030;-74
2022/12/14 00:48:03;;;;;;;30.35;11.73;;;-2.40;94.40;;;;;;5010097;28;20058;-75
2022/12/14 00:50:28;;;;;;;26.35;11.88;;;-2.30;94.50;;;;;;5009916;28;20033;-75
2022/12/14 00:52:54;;;;;;;29.95;11.50;;;-2.20;94.50;;;;;;5011478;28;20051;-75
2022/12/14 00:55:20;;;;;;;24.35;9.80;;;-2.10;94.70;;;;;;5010080;28;20025;-75
2022/12/14 00:57:45;;;;;;;28.65;12.18;;;-2.10;94.80;;;;;;5010862;28;20026;-76
2022/12/14 01:00:11;;;;;;;28.30;11.25;;;-2.10;94.60;;;;;;5011107;28;20030;-75
2022/12/14 01:02:37;;;;;;;30.40;12.60;;;-2.10;94.40;;;;;;5010860;28;20484;-76
2022/12/14 01:05:03;;;;;;;27.58;12.55;;;-2.20;94.20;;;;;;5010787;28;20052;-74
2022/12/14 01:07:29;;;;;;;30.45;11.07;;;-2.20;94.30;;;;;;5011363;28;20057;-74
2022/12/14 01:09:54;;;;;;;36.03;13.65;;;-2.20;94.40;;;;;;5010891;28;20056;-75
2022/12/14 01:12:21;;;;;;;28.65;12.27;;;-2.20;94.20;;;;;;5010524;28;20061;-75
2022/12/14 01:14:47;;;;;;;28.95;12.25;;;-2.20;94.30;;;;;;5010977;28;20452;-75
2022/12/14 01:17:13;;;;;;;37.53;14.32;;;-2.30;94.30;;;;;;5011428;28;20025;-75
2022/12/14 01:19:38;;;;;;;32.28;13.50;;;-2.40;94.10;;;;;;5011683;28;20041;-75
2022/12/14 01:22:04;;;;;;;33.00;13.05;;;-2.40;94.20;;;;;;5010615;28;20079;-75
2022/12/14 01:24:30;;;;;;;27.95;12.55;;;-2.50;94.30;;;;;;5009756;28;20037;-75
2022/12/14 01:26:55;;;;;;;29.45;12.38;;;-2.40;94.40;;;;;;5010515;28;20057;-74
2022/12/14 01:29:21;;;;;;;26.83;11.43;;;-2.30;94.40;;;;;;5010494;28;20045;-75
2022/12/14 01:31:47;;;;;;;34.20;14.32;;;-2.40;94.30;;;;;;5009949;28;20084;-75
2022/12/14 01:34:12;;;;;;;30.60;12.95;;;-2.40;94.30;;;;;;5009617;28;20038;-76
2022/12/14 01:36:38;;;;;;;31.20;12.30;;;-2.40;94.20;;;;;;5010597;28;20117;-75
2022/12/14 01:39:08;;;;;;;34.75;11.98;;;-2.50;94.20;;;;;;5009490;28;20029;-74
2022/12/14 01:42:00;;;;;;;27.83;11.80;;;-2.50;94.30;;;;;;5010683;28;20037;-74
2022/12/14 01:44:25;;;;;;;27.77;11.55;;;-2.50;94.40;;;;;;5009432;28;20392;-75
2022/12/14 01:47:00;;;;;;;29.13;11.60;;;-2.60;94.30;;;;;;5010911;28;20033;-74
2022/12/14 01:49:38;;;;;;;31.27;12.10;;;-2.60;94.30;;;;;;5010603;28;20407;-74
2022/12/14 01:52:07;;;;;;;28.80;11.68;;;-2.60;94.40;;;;;;5009269;28;20116;-76
2022/12/14 01:54:36;;;;;;;28.98;11.80;;;-2.80;94.20;;;;;;5010359;28;20030;-74
2022/12/14 01:57:03;;;;;;;23.60;11.27;;;-2.80;94.40;;;;;;5010297;28;20341;-75
2022/12/14 01:59:34;;;;;;;28.83;11.77;;;-2.70;94.50;;;;;;5010318;28;20030;-75
2022/12/14 02:02:03;;;;;;;33.58;12.57;;;-2.60;94.70;;;;;;5010810;28;20106;-75
2022/12/14 02:04:29;;;;;;;54.05;21.33;;;-2.60;94.60;;;;;;5010474;28;20072;-75
2022/12/14 02:06:55;;;;;;;57.53;19.30;;;-2.70;94.40;;;;;;5010386;28;20026;-75
2022/12/14 02:09:28;;;;;;;31.15;12.70;;;-2.70;94.50;;;;;;5009136;28;20037;-75
2022/12/14 02:12:10;;;;;;;28.95;11.75;;;-2.70;94.60;;;;;;5010019;28;20117;-74
2022/12/14 02:14:36;;;;;;;29.48;12.07;;;-2.70;94.50;;;;;;5010315;28;20034;-74
2022/12/14 02:17:02;;;;;;;23.70;10.90;;;-2.80;94.40;;;;;;5010176;28;20104;-75
2022/12/14 02:19:27;;;;;;;21.73;9.65;;;-2.70;94.40;;;;;;5010784;28;20497;-75
2022/12/14 02:22:28;;;;;;;28.45;10.88;;;-2.70;94.40;;;;;;5009144;28;20046;-75
2022/12/14 02:24:59;;;;;;;27.42;10.13;;;-2.80;94.40;;;;;;5010386;28;20088;-75
2022/12/14 02:28:01;;;;;;;23.27;10.45;;;-2.90;94.30;;;;;;5013805;28;20022;-75
2022/12/14 02:30:33;;;;;;;27.13;11.15;;;-2.90;94.30;;;;;;5013587;28;20041;-76
2022/12/14 02:33:20;;;;;;;22.42;10.07;;;-2.90;94.40;;;;;;5013588;28;20083;-73
2022/12/14 02:35:45;;;;;;;20.95;8.85;;;-3.00;94.20;;;;;;5019513;28;20022;-74
2022/12/14 02:38:54;;;;;;;25.20;10.57;;;-2.90;94.30;;;;;;5033843;28;20025;-73
2022/12/14 02:41:37;;;;;;;28.70;9.90;;;-3.00;94.30;;;;;;5025705;28;20038;-76
2022/12/14 02:44:27;;;;;;;24.83;8.85;;;-3.00;94.30;;;;;;5033118;28;20017;-77
2022/12/14 02:47:01;;;;;;;21.80;9.70;;;-3.00;94.30;;;;;;5033548;28;20028;-76
2022/12/14 02:49:57;;;;;;;23.85;9.40;;;-3.00;94.40;;;;;;5033540;28;20041;-74
2022/12/14 02:52:48;;;;;;;25.00;10.35;;;-3.10;94.30;;;;;;5033096;28;20096;-74
2022/12/14 02:55:30;;;;;;;20.60;8.75;;;-3.10;94.30;;;;;;5033429;28;20064;-74
2022/12/14 02:58:13;;;;;;;29.60;10.55;;;-3.10;94.30;;;;;;5032027;28;20513;-74
2022/12/14 03:00:39;;;;;;;27.17;10.25;;;-3.10;94.20;;;;;;5032944;28;20117;-76
2022/12/14 03:03:05;;;;;;;25.75;10.30;;;-3.10;94.30;;;;;;5032819;28;20459;-75
2022/12/14 03:05:31;;;;;;;23.63;9.82;;;-3.10;94.30;;;;;;5032881;28;20033;-74
2022/12/14 03:08:00;;;;;;;27.00;9.90;;;-3.10;94.40;;;;;;5033166;28;20032;-75
2022/12/14 03:10:47;;;;;;;25.33;10.65;;;-3.20;94.30;;;;;;5032716;28;20040;-75
2022/12/14 03:13:25;;;;;;;24.23;9.93;;;-3.20;94.30;;;;;;5031376;28;20061;-74
2022/12/14 03:15:54;;;;;;;;;;;-3.20;94.30;;;;;;5033116;28;20040;-73
2022/12/14 03:18:22;;;;;;;27.60;9.77;;;-3.20;94.30;;;;;;5032630;28;19913;-74
2022/12/14 03:20:51;;;;;;;29.95;10.65;;;-3.30;94.40;;;;;;5032433;28;20044;-75
2022/12/14 03:23:31;;;;;;;29.10;10.63;;;-3.30;94.40;;;;;;5032551;28;20109;-74
2022/12/14 03:26:08;;;;;;;31.13;10.35;;;-3.30;94.40;;;;;;5033077;28;20021;-73
2022/12/14 03:28:48;;;;;;;18.70;8.15;;;-3.30;94.30;;;;;;5032399;28;20099;-72
2022/12/14 03:31:25;;;;;;;27.15;10.00;;;-3.30;94.40;;;;;;5032210;28;20276;-73
2022/12/14 03:33:54;;;;;;;18.95;8.68;;;-3.40;94.30;;;;;;5032313;28;20029;-74
2022/12/14 03:36:28;;;;;;;29.88;10.85;;;-3.40;94.30;;;;;;5030682;28;20041;-73
2022/12/14 03:38:58;;;;;;;24.45;9.55;;;-3.40;94.20;;;;;;5032149;28;20030;-74
2022/12/14 03:41:33;;;;;;;25.00;10.05;;;-3.30;94.50;;;;;;5031952;28;20477;-73
2022/12/14 03:44:06;;;;;;;24.60;10.20;;;-3.20;94.60;;;;;;5032507;28;20049;-73
2022/12/14 03:46:47;;;;;;;22.30;8.93;;;-3.30;94.30;;;;;;5031037;28;20184;-73
2022/12/14 03:49:19;;;;;;;22.75;9.70;;;-3.30;94.20;;;;;;5031914;28;20029;-74
2022/12/14 03:51:50;;;;;;;23.70;9.57;;;-3.30;94.30;;;;;;5031929;28;20476;-73
2022/12/14 03:54:25;;;;;;;29.50;10.25;;;-3.30;94.30;;;;;;5031994;28;20029;-73
2022/12/14 03:57:04;;;;;;;28.58;10.55;;;-3.40;94.40;;;;;;5031751;28;20022;-73
2022/12/14 03:59:56;;;;;;;20.65;9.60;;;-3.40;94.10;;;;;;5030484;28;20026;-75
2022/12/14 04:02:26;;;;;;;21.58;9.48;;;-3.40;94.40;;;;;;5031563;28;20040;-74
2022/12/14 04:05:10;;;;;;;25.52;9.60;;;-3.30;94.60;;;;;;5031988;28;20401;-74
2022/12/14 04:08:23;;;;;;;23.85;9.77;;;-3.20;94.60;;;;;;5031801;28;20026;-74
2022/12/14 04:19:28;;;;;;;25.80;9.05;;;-3.40;94.30;;;;;;5031408;28;20539;-74
2022/12/14 04:22:11;;;;;;;18.27;7.85;;;-3.30;94.60;;;;;;5030165;28;20044;-75
2022/12/14 04:27:42;;;;;;;22.05;8.43;;;-3.20;94.90;;;;;;5030089;28;20037;-74
2022/12/14 04:30:10;;;;;;;23.27;8.88;;;-3.30;94.80;;;;;;5031396;28;20026;-74
2022/12/14 04:32:47;;;;;;;23.63;9.13;;;-3.30;94.60;;;;;;5031152;28;20112;-75
2022/12/14 04:35:32;;;;;;;25.52;8.82;;;-3.20;94.70;;;;;;5029967;28;20033;-75
2022/12/14 04:38:14;;;;;;;17.83;9.75;;;-3.20;94.70;;;;;;5031459;28;20036;-74
2022/12/14 04:40:50;;;;;;;24.33;9.07;;;-3.30;94.80;;;;;;5031132;28;20132;-74
2022/12/14 04:43:20;;;;;;;26.35;9.88;;;-3.30;94.90;;;;;;5029940;28;20029;-75
2022/12/14 04:46:07;;;;;;;20.55;8.27;;;-3.20;94.90;;;;;;5029836;28;20057;-76
2022/12/14 04:48:38;;;;;;;20.38;8.10;;;-3.20;94.90;;;;;;5029921;28;20368;-74
2022/12/14 04:51:20;;;;;;;21.35;8.57;;;-3.10;94.90;;;;;;5030575;28;20666;-74
2022/12/14 04:53:52;;;;;;;18.02;9.43;;;-3.30;94.80;;;;;;5030654;28;20087;-73
2022/12/14 04:56:21;;;;;;;20.60;8.82;;;-3.30;94.90;;;;;;5030683;28;20021;-74
2022/12/14 04:58:47;;;;;;;25.08;10.13;;;-3.20;95.00;;;;;;5031285;28;20014;-73
2022/12/14 05:01:38;;;;;;;27.23;9.07;;;-3.20;95.00;;;;;;5030538;28;20037;-74
2022/12/14 05:04:04;;;;;;;23.77;9.23;;;-3.30;94.80;;;;;;5030515;28;20034;-74
2022/12/14 05:06:55;;;;;;;21.83;9.32;;;-3.30;94.80;;;;;;5030424;28;20395;-73
2022/12/14 05:09:36;;;;;;;27.95;9.27;;;-3.30;94.80;;;;;;5030256;28;20688;-74
2022/12/14 05:12:12;;;;;;;24.55;9.60;;;-3.30;94.60;;;;;;5030407;28;20045;-74
2022/12/14 05:15:17;;;;;;;22.20;9.15;;;-3.30;94.40;;;;;;5029419;28;20033;-74
2022/12/14 05:17:43;;;;;;;24.98;9.05;;;-3.40;94.40;;;;;;5008397;28;20034;-74
2022/12/14 05:20:18;;;;;;;21.23;8.77;;;-3.40;94.30;;;;;;5026498;28;20041;-73
2022/12/14 05:22:44;;;;;;;26.77;8.95;;;-3.40;94.30;;;;;;5029743;28;20097;-75
2022/12/14 05:25:10;;;;;;;25.17;9.43;;;-3.50;94.20;;;;;;5029152;28;20423;-73
2022/12/14 05:27:35;;;;;;;24.30;9.40;;;-3.50;94.10;;;;;;5029373;28;20063;-74
2022/12/14 05:30:01;;;;;;;18.95;8.15;;;-3.60;94.20;;;;;;5029047;28;20333;-74
2022/12/14 05:32:30;;;;;;;22.48;8.13;;;-3.60;94.10;;;;;;5030159;28;20037;-75
2022/12/14 05:34:56;;;;;;;19.52;8.45;;;-3.60;94.10;;;;;;5030471;28;20355;-75
2022/12/14 05:37:21;;;;;;;20.40;8.07;;;-3.80;93.80;;;;;;5029157;28;20034;-74
2022/12/14 05:39:47;;;;;;;20.35;8.93;;;-3.80;93.90;;;;;;5030141;28;20030;-75
2022/12/14 05:42:13;;;;;;;18.48;8.23;;;-3.80;94.00;;;;;;5030116;28;20117;-75
2022/12/14 05:44:38;;;;;;;28.77;9.45;;;-3.80;94.00;;;;;;5029060;28;20048;-75
2022/12/14 05:47:04;;;;;;;23.90;9.38;;;-3.80;94.00;;;;;;5029129;28;20387;-75
2022/12/14 05:49:29;;;;;;;23.98;8.75;;;-3.90;93.90;;;;;;5030536;28;20029;-75
2022/12/14 05:51:55;;;;;;;25.13;9.25;;;-3.90;93.90;;;;;;5030000;28;20095;-75
2022/12/14 05:54:21;;;;;;;17.98;7.10;;;-3.80;94.10;;;;;;5030163;28;20031;-74
2022/12/14 05:56:47;;;;;;;19.98;8.90;;;-3.80;94.40;;;;;;5030021;28;20040;-75
2022/12/14 05:59:14;;;;;;;24.08;8.23;;;-3.80;94.60;;;;;;5029610;28;20087;-76
2022/12/14 06:01:42;;;;;;;27.67;10.18;;;-3.70;94.70;;;;;;5034357;28;20507;-75
2022/12/14 06:04:09;;;;;;;23.50;9.98;;;-3.70;94.40;;;;;;5034077;28;20037;-73
2022/12/14 06:06:35;;;;;;;21.00;8.40;;;-3.80;94.00;;;;;;5033882;28;20038;-75
2022/12/14 06:09:00;;;;;;;19.52;8.60;;;-3.70;94.20;;;;;;5032496;28;20098;-75
2022/12/14 06:11:26;;;;;;;21.85;7.60;;;-3.80;94.00;;;;;;5033675;28;20034;-74
2022/12/14 06:13:52;;;;;;;23.52;8.82;;;-3.70;94.10;;;;;;5033974;28;20085;-74
2022/12/14 06:16:21;;;;;;;17.30;7.78;;;-3.80;94.00;;;;;;5032696;28;20037;-74
2022/12/14 06:18:52;;;;;;;20.40;8.68;;;-3.70;94.40;;;;;;5033613;28;20475;-75
2022/12/14 06:21:20;;;;;;;18.77;8.43;;;-3.70;94.40;;;;;;5033577;28;20471;-74
2022/12/14 06:23:46;;;;;;;;;;;-3.70;94.60;;;;;;5034126;28;20036;-75
2022/12/14 06:26:13;;;;;;;22.60;8.50;;;-3.60;94.50;;;;;;5032262;28;20259;-74
2022/12/14 06:28:38;;;;;;;22.67;8.65;;;-3.70;94.30;;;;;;5032028;28;20053;-73
2022/12/14 06:31:05;;;;;;;23.02;8.25;;;-3.70;94.20;;;;;;5033741;28;20097;-74
2022/12/14 06:33:33;;;;;;;17.00;8.65;;;-3.60;94.60;;;;;;5033971;28;20076;-74
2022/12/14 06:35:59;;;;;;;20.60;7.65;;;-3.60;94.40;;;;;;5033308;28;20029;-73
2022/12/14 06:38:25;;;;;;;24.75;9.10;;;-3.70;94.00;;;;;;5032359;28;20034;-73
2022/12/14 06:40:51;;;;;;;20.83;8.60;;;-3.60;94.30;;;;;;5033859;28;20360;-75
2022/12/14 06:43:16;;;;;;;24.00;8.50;;;-3.60;94.60;;;;;;5033336;28;20083;-73
2022/12/14 06:45:42;;;;;;;25.25;8.60;;;-3.40;94.80;;;;;;5033101;28;20343;-74
2022/12/14 06:48:08;;;;;;;22.63;7.97;;;-3.40;94.40;;;;;;5033041;28;20044;-75
2022/12/14 06:50:34;;;;;;;22.13;8.00;;;-3.50;94.30;;;;;;5011412;28;20528;-75
2022/12/14 06:53:00;;;;;;;23.42;9.50;;;-3.50;94.30;;;;;;4993251;28;20456;-75
2022/12/14 06:55:27;;;;;;;21.73;8.63;;;-3.20;94.40;;;;;;5013379;28;20026;-77
2022/12/14 06:57:53;;;;;;;22.60;8.05;;;-3.30;94.30;;;;;;5013414;28;20429;-74
2022/12/14 07:00:21;;;;;;;18.33;6.53;;;-3.30;94.40;;;;;;5012073;28;20112;-74
2022/12/14 07:02:47;;;;;;;26.85;9.38;;;-3.40;93.90;;;;;;5013351;28;20073;-73
2022/12/14 07:05:13;;;;;;;25.13;8.30;;;-3.40;93.90;;;;;;5013388;28;20129;-73
2022/12/14 07:07:40;;;;;;;22.25;8.10;;;-3.50;93.90;;;;;;5014349;28;20014;-73
2022/12/14 07:10:07;;;;;;;18.48;8.27;;;-3.50;94.00;;;;;;5012078;28;20379;-73
2022/12/14 07:12:33;;;;;;;18.70;8.32;;;-3.50;94.20;;;;;;5012279;28;20049;-73
2022/12/14 07:14:59;;;;;;;16.55;7.10;;;-3.50;94.40;;;;;;5013128;28;20045;-74
2022/12/14 07:17:25;;;;;;;19.48;7.60;;;-3.50;94.40;;;;;;5011927;28;20034;-73
2022/12/14 07:19:50;;;;;;;22.85;8.18;;;-3.40;94.60;;;;;;5013319;28;20034;-73
2022/12/14 07:22:16;;;;;;;20.85;8.18;;;-3.50;94.30;;;;;;5012775;28;20026;-71
2022/12/14 07:24:42;;;;;;;19.27;8.65;;;-3.50;94.30;;;;;;5011457;28;20421;-72
2022/12/14 07:27:08;;;;;;;22.52;7.75;;;-3.50;94.20;;;;;;5013136;28;20026;-77
2022/12/14 07:29:33;;;;;;;19.45;8.15;;;-3.40;94.30;;;;;;5010885;28;20034;-78
2022/12/14 07:31:59;;;;;;;25.52;8.68;;;-3.40;94.40;;;;;;5011680;28;20378;-72
2022/12/14 07:34:25;;;;;;;23.52;10.00;;;-3.40;94.30;;;;;;5012044;28;20064;-72
2022/12/14 07:36:52;;;;;;;21.42;8.32;;;-3.40;94.30;;;;;;5012245;28;20095;-74
2022/12/14 07:39:18;;;;;;;34.58;13.35;;;-3.40;94.30;;;;;;5012250;28;20038;-72
2022/12/14 07:41:45;;;;;;;22.05;8.43;;;-3.30;94.40;;;;;;5013504;28;20038;-73
2022/12/14 07:44:12;;;;;;;15.38;5.95;;;-3.30;94.40;;;;;;5014335;28;20041;-76
2022/12/14 07:46:39;;;;;;;21.60;8.13;;;-3.20;94.40;;;;;;5013769;28;20137;-72
2022/12/14 07:49:05;;;;;;;20.73;8.43;;;-3.20;94.30;;;;;;5012268;28;20404;-76
2022/12/14 07:51:34;;;;;;;20.30;8.00;;;-3.20;94.30;;;;;;5013473;28;20060;-74
2022/12/14 07:54:01;;;;;;;18.42;8.05;;;-3.20;94.20;;;;;;5013826;28;20040;-78
2022/12/14 07:56:33;;;;;;;23.23;7.80;;;-3.30;94.20;;;;;;5011774;28;20040;-77
2022/12/14 07:59:00;;;;;;;19.00;7.88;;;-3.30;94.20;;;;;;5012564;28;20029;-73
2022/12/14 08:01:28;;;;;;;16.67;8.18;;;-3.30;94.20;;;;;;5011357;28;20038;-73
2022/12/14 08:03:59;;;;;;;15.48;7.13;;;-3.20;94.30;;;;;;5011991;28;20064;-75
2022/12/14 08:06:28;;;;;;;21.80;8.88;;;-3.10;94.40;;;;;;5011988;28;20522;-73
2022/12/14 08:08:54;;;;;;;23.50;9.20;;;-2.90;94.30;;;;;;5010315;28;20345;-74
2022/12/14 08:11:21;;;;;;;18.67;8.65;;;-2.70;94.30;;;;;;5011654;28;20034;-75
2022/12/14 08:13:51;;;;;;;17.03;6.40;;;-2.90;93.90;;;;;;5011988;28;20048;-74
2022/12/14 08:16:17;;;;;;;22.20;9.07;;;-3.00;93.70;;;;;;5012338;28;20049;-73
2022/12/14 08:18:43;;;;;;;19.33;8.55;;;-2.90;94.10;;;;;;5010542;28;20456;-75
2022/12/14 08:21:10;;;;;;;19.02;8.02;;;-2.90;93.80;;;;;;5011421;28;20077;-74
2022/12/14 08:23:36;;;;;;;21.63;8.48;;;-2.90;93.70;;;;;;5011239;28;20033;-77
2022/12/14 08:26:04;;;;;;;23.13;7.88;;;-2.90;93.70;;;;;;5010562;28;20356;-75
2022/12/14 08:28:31;;;;;;;22.40;8.80;;;-2.90;93.90;;;;;;5011631;28;20088;-72
2022/12/14 08:31:06;;;;;;;20.63;7.35;;;-2.80;93.80;;;;;;5010361;28;20030;-77
2022/12/14 08:33:33;;;;;;;19.27;8.32;;;-2.70;93.80;;;;;;5010797;28;20030;-79
2022/12/14 08:36:20;;;;;;;20.15;8.52;;;-2.70;93.70;;;;;;5013323;28;20062;-76
2022/12/14 08:38:51;;;;;;;44.55;14.70;;;-2.60;93.80;;;;;;5010154;28;20041;-74
2022/12/14 08:41:17;;;;;;;29.75;10.70;;;-2.50;93.90;;;;;;5010055;28;20058;-74
2022/12/14 08:43:43;;;;;;;18.70;7.22;;;-2.50;93.80;;;;;;5010369;28;20060;-75
2022/12/14 08:46:09;;;;;;;24.40;8.85;;;-2.50;93.50;;;;;;5009586;28;20026;-74
2022/12/14 08:48:35;;;;;;;19.95;8.13;;;-2.40;93.50;;;;;;5009734;28;20165;-73
2022/12/14 08:51:03;;;;;;;18.58;7.82;;;-2.40;93.40;;;;;;5009817;28;20090;-71
2022/12/14 08:53:28;;;;;;;18.40;8.07;;;-2.50;93.40;;;;;;5011079;28;20026;-75
2022/12/14 08:55:54;;;;;;;20.48;8.45;;;-2.40;93.30;;;;;;5011320;28;20336;-75
2022/12/14 08:58:20;;;;;;;23.15;7.78;;;-2.40;93.40;;;;;;5009762;28;20045;-75
2022/12/14 09:00:45;;;;;;;19.30;7.15;;;-2.40;93.40;;;;;;5010785;28;20132;-73
2022/12/14 09:03:11;;;;;;;22.67;8.95;;;-2.50;93.30;;;;;;5011055;28;20456;-73
2022/12/14 09:05:37;;;;;;;17.75;7.50;;;-2.40;93.30;;;;;;5010197;28;20040;-76
2022/12/14 09:08:03;;;;;;;16.60;7.32;;;-2.50;93.30;;;;;;5010894;28;20029;-77
2022/12/14 09:10:29;;;;;;;19.63;8.60;;;-2.60;93.50;;;;;;5013317;28;20131;-77
2022/12/14 09:12:55;;;;;;;23.70;8.93;;;-2.60;93.50;;;;;;5013342;28;20046;-78
2022/12/14 09:15:21;;;;;;;29.00;12.10;;;-2.40;93.80;;;;;;5011535;28;20032;-77
2022/12/14 09:17:48;;;;;;;25.25;10.98;;;-2.10;93.80;;;;;;5013142;28;20025;-79
2022/12/14 09:20:14;;;;;;;24.83;9.73;;;-2.10;93.50;;;;;;5010921;28;20208;-77
2022/12/14 09:22:39;;;;;;;19.73;8.35;;;-2.00;93.40;;;;;;5011470;28;20093;-77
2022/12/14 09:25:06;;;;;;;18.80;8.07;;;-1.90;93.20;;;;;;5010932;28;20472;-78
2022/12/14 09:27:32;;;;;;;19.40;8.73;;;-1.80;93.10;;;;;;5010997;28;20040;-74
2022/12/14 09:29:58;;;;;;;26.23;9.43;;;-1.90;93.00;;;;;;5009605;28;20038;-73
2022/12/14 09:32:23;;;;;;;18.17;7.90;;;-1.80;93.10;;;;;;5010988;28;20034;-74
2022/12/14 09:34:49;;;;;;;20.75;8.52;;;-1.80;93.00;;;;;;5013252;28;20495;-76
2022/12/14 09:37:15;;;;;;;20.50;9.38;;;-1.70;93.10;;;;;;5017278;28;20030;-75
2022/12/14 09:39:40;;;;;;;19.58;9.68;;;-1.70;93.00;;;;;;5017173;28;20046;-75
2022/12/14 09:42:15;;;;;;;21.67;9.32;;;-1.60;92.80;;;;;;5017137;28;20112;-77
2022/12/14 09:45:01;;;;;;;24.15;11.13;;;-1.70;92.90;;;;;;5017141;28;20034;-76
2022/12/14 09:47:33;;;;;;;25.88;10.07;;;-1.70;93.10;;;;;;5016887;28;20030;-75
2022/12/14 09:50:25;;;;;;;27.83;12.00;;;-1.70;93.20;;;;;;5017491;28;20351;-75
2022/12/14 09:53:10;;;;;;;34.10;12.95;;;-1.70;93.20;;;;;;5015448;28;20034;-75
2022/12/14 09:55:41;;;;;;;38.03;14.63;;;-1.70;93.10;;;;;;5019728;28;20042;-75
2022/12/14 09:58:26;;;;;;;35.50;14.75;;;-1.60;93.00;;;;;;5017503;28;20022;-75
2022/12/14 10:01:20;;;;;;;29.23;13.35;;;-1.60;92.90;;;;;;5018599;28;20096;-75
2022/12/14 10:04:11;;;;;;;39.53;17.75;;;-1.70;92.80;;;;;;5018224;28;20467;-73
2022/12/14 10:07:08;;;;;;;30.10;10.57;;;-1.70;93.00;;;;;;5018314;28;20033;-74
2022/12/14 10:09:43;;;;;;;20.48;8.73;;;-1.90;92.70;;;;;;5017825;28;20541;-74
2022/12/14 10:12:20;;;;;;;17.67;7.72;;;-2.10;92.60;;;;;;5016758;28;20057;-75
2022/12/14 10:15:01;;;;;;;26.58;10.50;;;-2.00;93.00;;;;;;5016805;28;20030;-75
2022/12/14 10:17:54;;;;;;;25.50;11.38;;;-1.90;93.00;;;;;;5016272;28;20026;-73
2022/12/14 10:20:47;;;;;;;33.75;12.88;;;-1.80;92.90;;;;;;5017532;28;20108;-81
2022/12/14 10:23:19;;;;;;;29.30;11.73;;;-1.70;92.90;;;;;;5017205;28;20502;-81
2022/12/14 10:25:49;;;;;;;41.08;12.38;;;-1.70;92.80;;;;;;5016303;28;20120;-74
2022/12/14 10:28:23;;;;;;;34.40;12.48;;;-1.70;92.90;;;;;;5016762;28;20034;-76
2022/12/14 10:30:53;;;;;;;48.65;16.48;;;-1.60;92.90;;;;;;5015822;28;20318;-79
2022/12/14 10:33:28;;;;;;;68.97;19.70;;;-1.70;93.00;;;;;;5016527;28;20125;-75
2022/12/14 10:35:58;;;;;;;59.05;19.75;;;-1.60;93.10;;;;;;5016700;28;20104;-77
2022/12/14 10:38:24;;;;;;;53.08;17.52;;;-1.60;93.10;;;;;;5017541;28;20554;-74
2022/12/14 10:41:12;;;;;;;46.55;13.20;;;-1.50;93.20;;;;;;5017438;28;20389;-77
2022/12/14 10:43:46;;;;;;;29.77;11.80;;;-1.40;93.20;;;;;;5013174;28;20060;-78
2022/12/14 10:46:18;;;;;;;30.77;13.13;;;-1.40;93.30;;;;;;5012717;28;20460;-77
2022/12/14 10:49:14;;;;;;;39.75;12.50;;;-1.40;93.30;;;;;;5012441;28;20076;-77
2022/12/14 10:51:42;;;;;;;29.00;10.90;;;-1.30;93.40;;;;;;5013244;28;20498;-76
2022/12/14 10:54:32;;;;;;;29.30;11.10;;;-1.30;93.50;;;;;;5013562;28;20124;-73
2022/12/14 10:56:58;;;;;;;24.27;10.00;;;-1.20;93.60;;;;;;5013740;28;20037;-78
2022/12/14 10:59:27;;;;;;;25.92;10.60;;;-1.20;93.80;;;;;;5013498;28;20030;-76
2022/12/14 11:02:16;;;;;;;27.05;9.38;;;-1.10;93.60;;;;;;5013732;28;20022;-74
2022/12/14 11:04:52;;;;;;;23.25;9.88;;;-1.10;93.70;;;;;;5013098;28;20480;-76
2022/12/14 11:07:24;;;;;;;32.33;11.05;;;-1.00;93.70;;;;;;5013158;28;20034;-75
2022/12/14 11:09:51;;;;;;;37.50;9.80;;;-0.90;93.70;;;;;;5011946;28;20053;-74
2022/12/14 11:12:27;;;;;;;29.63;10.15;;;-0.80;93.70;;;;;;5012877;28;20481;-75
2022/12/14 11:14:59;;;;;;;26.02;9.00;;;-0.80;93.40;;;;;;5012740;28;20103;-75
2022/12/14 11:17:39;;;;;;;21.70;8.98;;;-0.70;93.40;;;;;;5013042;28;20341;-76
2022/12/14 11:20:23;;;;;;;28.23;9.75;;;-0.60;93.50;;;;;;5013281;28;20038;-76
2022/12/14 11:22:48;;;;;;;20.23;8.40;;;-0.60;93.40;;;;;;5013397;28;20101;-77
2022/12/14 11:25:39;;;;;;;32.13;9.68;;;-0.50;93.10;;;;;;5013046;28;20504;-78
2022/12/14 11:28:22;;;;;;;22.33;9.38;;;-0.30;93.10;;;;;;5012400;28;20030;-78
2022/12/14 11:30:58;;;;;;;29.38;9.98;;;-0.10;93.60;;;;;;5011861;28;20440;-78
2022/12/14 11:33:30;;;;;;;27.42;9.07;;;0.60;94.30;;;;;;5012935;28;20125;-78
2022/12/14 11:35:56;;;;;;;22.55;10.15;;;1.60;94.00;;;;;;5012836;28;20022;-77
2022/12/14 11:38:23;;;;;;;30.17;9.48;;;2.50;93.20;;;;;;5012384;28;20519;-77
2022/12/14 11:40:49;;;;;;;30.92;10.15;;;3.10;91.80;;;;;;5013555;28;20125;-78
2022/12/14 11:43:28;;;;;;;26.52;11.73;;;3.60;91.00;;;;;;5011356;28;20496;-79
2022/12/14 11:45:58;;;;;;;25.50;9.98;;;3.70;89.20;;;;;;5011383;28;20125;-80
2022/12/14 11:48:26;;;;;;;26.67;12.20;;;3.80;90.20;;;;;;5011247;28;20138;-78
2022/12/14 11:50:54;;;;;;;40.58;13.40;;;3.80;89.50;;;;;;5011543;28;20030;-78
2022/12/14 11:53:22;;;;;;;36.10;10.80;;;3.70;89.70;;;;;;5012259;28;20025;-77
2022/12/14 11:56:00;;;;;;;17.98;8.07;;;3.80;90.00;;;;;;5013318;28;20021;-77
2022/12/14 11:58:35;;;;;;;17.63;8.63;;;4.00;88.10;;;;;;5012333;28;20041;-74
2022/12/14 12:01:09;;;;;;;23.67;8.73;;;4.10;87.40;;;;;;5011983;28;20104;-74
2022/12/14 12:03:42;;;;;;;18.67;7.88;;;4.00;87.80;;;;;;5012058;28;20034;-76
2022/12/14 12:06:12;;;;;;;27.23;11.43;;;3.90;87.60;;;;;;5012370;28;20034;-76
2022/12/14 12:08:43;;;;;;;21.73;9.85;;;3.80;88.50;;;;;;5011848;28;20050;-75
2022/12/14 12:11:20;;;;;;;19.33;8.88;;;3.80;87.20;;;;;;5012251;28;20439;-74
2022/12/14 12:13:51;;;;;;;20.60;7.95;;;3.70;87.30;;;;;;5012359;28;20104;-76
2022/12/14 12:16:26;;;;;;;23.73;9.27;;;3.80;87.30;;;;;;5011947;28;20065;-74
2022/12/14 12:19:02;;;;;;;19.15;7.75;;;3.80;86.50;;;;;;5010678;28;20478;-73
2022/12/14 12:21:34;;;;;;;17.52;8.90;;;3.80;85.70;;;;;;5011735;28;20038;-74
2022/12/14 12:24:25;;;;;;;26.83;10.55;;;3.90;85.40;;;;;;5010714;28;20034;-72
2022/12/14 12:27:10;;;;;;;19.20;8.57;;;3.80;86.30;;;;;;5011691;28;20033;-72
2022/12/14 12:29:48;;;;;;;31.10;8.82;;;3.90;86.90;;;;;;5012591;28;20121;-81
2022/12/14 12:32:25;;;;;;;31.38;12.00;;;3.90;86.20;;;;;;5011650;28;20030;-75
2022/12/14 12:34:51;;;;;;;20.02;9.15;;;3.80;86.80;;;;;;5011415;28;20053;-76
2022/12/14 12:37:40;;;;;;;23.17;10.63;;;3.70;85.90;;;;;;5010692;28;20076;-75
2022/12/14 12:40:27;;;;;;;23.60;10.05;;;3.70;85.80;;;;;;5011564;28;20064;-76
2022/12/14 12:42:53;;;;;;;16.38;8.15;;;3.80;85.30;;;;;;5011456;28;20064;-76
2022/12/14 12:45:30;;;;;;;16.98;7.60;;;3.80;85.60;;;;;;5011702;28;20440;-73
2022/12/14 12:48:06;;;;;;;15.27;7.15;;;3.90;85.20;;;;;;5011720;28;20125;-76
2022/12/14 12:50:36;;;;;;;26.15;9.25;;;3.90;85.00;;;;;;5012237;28;20036;-74
2022/12/14 12:53:31;;;;;;;20.35;7.85;;;3.80;84.90;;;;;;5010883;28;20132;-75
2022/12/14 12:56:28;;;;;;;20.15;9.27;;;3.80;85.30;;;;;;5001915;28;20057;-76
2022/12/14 12:58:55;;;;;;;17.58;8.70;;;3.80;84.80;;;;;;5010972;28;20050;-76
2022/12/14 13:01:42;;;;;;;19.80;8.85;;;3.80;84.70;;;;;;5011861;28;20395;-76
2022/12/14 13:04:18;;;;;;;19.70;8.27;;;3.70;83.60;;;;;;5012598;28;20043;-75
2022/12/14 13:06:50;;;;;;;16.63;7.68;;;3.70;84.10;;;;;;5012457;28;20038;-75
2022/12/14 13:09:43;;;;;;;12.73;6.60;;;3.70;83.60;;;;;;5011303;28;20142;-76
2022/12/14 13:12:35;;;;;;;14.85;7.40;;;3.50;83.20;;;;;;5010862;28;20046;-76